sensor_id;sensor_type;location;lat;lon;timestamp;pressure;altitude;pressure_sealevel;temperature;humidity
8360;BME280;4217;48.762;11.428;2022-09-27T00:03:28;95892.69;;;16.59;53.15
8360;BME280;4217;48.762;11.428;2022-09-27T00:13:30;95876.31;;;16.65;53.42
8360;BME280;4217;48.762;11.428;2022-09-27T00:23:32;95868.28;;;16.36;55.43
8360;BME280;4217;48.762;11.428;2022-09-27T00:33:34;95860.97;;;16.33;56.01
8360;BME280;4217;48.762;11.428;2022-09-27T00:43:48;95851.91;;;16.34;55.92
8360;BME280;4217;48.762;11.428;2022-09-27T00:53:52;95841.63;;;16.32;56.36
8360;BME280;4217;48.762;11.428;2022-09-27T01:03:59;95828.75;;;16.14;56.79
8360;BME280;4217;48.762;11.428;2022-09-27T01:45:43;95796.06;;;15.84;58.66
8360;BME280;4217;48.762;11.428;2022-09-27T01:56:02;95789.97;;;15.83;58.94
8360;BME280;4217;48.762;11.428;2022-09-27T02:06:26;95775.84;;;15.71;59.53
8360;BME280;4217;48.762;11.428;2022-09-27T02:16:47;95765.13;;;15.41;60.70
8360;BME280;4217;48.762;11.428;2022-09-27T02:26:59;95752.84;;;15.20;62.04
8360;BME280;4217;48.762;11.428;2022-09-27T02:37:04;95738.50;;;15.03;62.69
8360;BME280;4217;48.762;11.428;2022-09-27T02:57:45;95741.78;;;15.26;62.05
8360;BME280;4217;48.762;11.428;2022-09-27T03:08:09;95730.75;;;15.15;62.87
8360;BME280;4217;48.762;11.428;2022-09-27T03:18:12;95726.38;;;15.02;63.44
8360;BME280;4217;48.762;11.428;2022-09-27T03:28:32;95721.09;;;15.02;63.38
8360;BME280;4217;48.762;11.428;2022-09-27T03:38:34;95722.94;;;14.85;64.47
8360;BME280;4217;48.762;11.428;2022-09-27T03:48:36;95712.69;;;14.66;65.27
8360;BME280;4217;48.762;11.428;2022-09-27T03:58:38;95715.13;;;14.36;66.29
8360;BME280;4217;48.762;11.428;2022-09-27T04:08:40;95706.63;;;14.74;65.12
8360;BME280;4217;48.762;11.428;2022-09-27T04:18:43;95698.06;;;14.94;64.53
8360;BME280;4217;48.762;11.428;2022-09-27T04:29:05;95701.63;;;14.98;64.11
8360;BME280;4217;48.762;11.428;2022-09-27T04:39:11;95706.44;;;14.79;64.69
8360;BME280;4217;48.762;11.428;2022-09-27T04:49:15;95693.22;;;14.88;64.35
8360;BME280;4217;48.762;11.428;2022-09-27T04:59:19;95717.50;;;14.64;65.32
8360;BME280;4217;48.762;11.428;2022-09-27T05:09:21;95732.28;;;14.65;65.88
8360;BME280;4217;48.762;11.428;2022-09-27T05:19:25;95747.88;;;14.10;65.33
8360;BME280;4217;48.762;11.428;2022-09-27T05:29:46;95758.16;;;14.20;63.35
8360;BME280;4217;48.762;11.428;2022-09-27T05:40:07;95774.81;;;14.29;63.06
8360;BME280;4217;48.762;11.428;2022-09-27T05:50:28;95792.69;;;14.63;61.64
8360;BME280;4217;48.762;11.428;2022-09-27T06:00:31;95796.84;;;14.64;61.74
8360;BME280;4217;48.762;11.428;2022-09-27T06:10:35;95804.28;;;14.45;61.34
8360;BME280;4217;48.762;11.428;2022-09-27T06:20:39;95826.41;;;14.57;61.27
8360;BME280;4217;48.762;11.428;2022-09-27T06:30:45;95844.03;;;14.70;60.84
8360;BME280;4217;48.762;11.428;2022-09-27T06:41:12;95852.38;;;15.29;58.44
8360;BME280;4217;48.762;11.428;2022-09-27T06:51:38;95846.66;;;16.08;56.50
8360;BME280;4217;48.762;11.428;2022-09-27T07:01:40;95855.34;;;15.53;56.75
8360;BME280;4217;48.762;11.428;2022-09-27T07:12:04;95853.38;;;16.14;56.13
8360;BME280;4217;48.762;11.428;2022-09-27T07:22:06;95859.97;;;16.84;52.99
8360;BME280;4217;48.762;11.428;2022-09-27T07:32:11;95858.47;;;24.14;38.64
8360;BME280;4217;48.762;11.428;2022-09-27T07:42:12;95878.28;;;21.60;40.31
8360;BME280;4217;48.762;11.428;2022-09-27T07:52:19;95891.50;;;18.43;46.31
8360;BME280;4217;48.762;11.428;2022-09-27T08:02:27;95902.22;;;17.69;48.57
8360;BME280;4217;48.762;11.428;2022-09-27T08:12:30;95923.47;;;17.48;49.41
8360;BME280;4217;48.762;11.428;2022-09-27T08:22:31;95938.28;;;16.61;51.08
8360;BME280;4217;48.762;11.428;2022-09-27T08:32:37;95947.19;;;17.03;51.31
8360;BME280;4217;48.762;11.428;2022-09-27T08:42:49;95953.59;;;20.21;45.48
8360;BME280;4217;48.762;11.428;2022-09-27T08:53:04;95957.25;;;19.48;43.65
8360;BME280;4217;48.762;11.428;2022-09-27T09:03:17;95987.41;;;18.92;44.69
8360;BME280;4217;48.762;11.428;2022-09-27T09:33:58;95983.19;;;27.64;28.79
8360;BME280;4217;48.762;11.428;2022-09-27T09:44:26;95970.06;;;26.74;29.62
8360;BME280;4217;48.762;11.428;2022-09-27T09:54:45;95968.19;;;27.03;27.51
8360;BME280;4217;48.762;11.428;2022-09-27T10:04:49;95984.69;;;23.31;32.99
8360;BME280;4217;48.762;11.428;2022-09-27T10:14:51;95997.00;;;22.45;34.91
8360;BME280;4217;48.762;11.428;2022-09-27T10:24:58;95980.31;;;23.99;32.86
8360;BME280;4217;48.762;11.428;2022-09-27T10:45:33;96010.31;;;22.03;35.34
8360;BME280;4217;48.762;11.428;2022-09-27T10:55:49;96035.75;;;20.40;38.02
8360;BME280;4217;48.762;11.428;2022-09-27T11:05:52;96036.47;;;23.09;33.32
8360;BME280;4217;48.762;11.428;2022-09-27T11:26:35;96012.53;;;20.72;35.72
8360;BME280;4217;48.762;11.428;2022-09-27T11:57:32;96025.44;;;18.14;44.23
8360;BME280;4217;48.762;11.428;2022-09-27T12:08:05;96009.72;;;18.75;43.99
8360;BME280;4217;48.762;11.428;2022-09-27T12:18:34;96008.28;;;19.87;40.85
8360;BME280;4217;48.762;11.428;2022-09-27T12:28:55;95999.41;;;18.98;40.96
8360;BME280;4217;48.762;11.428;2022-09-27T12:39:19;95978.09;;;19.71;39.46
8360;BME280;4217;48.762;11.428;2022-09-27T12:49:49;95996.75;;;19.71;38.33
8360;BME280;4217;48.762;11.428;2022-09-27T13:00:07;95980.56;;;20.04;37.99
8360;BME280;4217;48.762;11.428;2022-09-27T13:20:39;95979.53;;;19.44;38.55
8360;BME280;4217;48.762;11.428;2022-09-27T13:31:08;95976.19;;;20.83;35.99
8360;BME280;4217;48.762;11.428;2022-09-27T13:41:18;95965.66;;;20.58;36.49
8360;BME280;4217;48.762;11.428;2022-09-27T13:51:50;95960.53;;;20.38;36.90
8360;BME280;4217;48.762;11.428;2022-09-27T14:02:18;95951.66;;;21.59;34.13
8360;BME280;4217;48.762;11.428;2022-09-27T14:12:37;95944.63;;;21.70;34.49
8360;BME280;4217;48.762;11.428;2022-09-27T14:22:52;95947.56;;;20.99;34.75
8360;BME280;4217;48.762;11.428;2022-09-27T14:32:58;95938.19;;;19.74;37.26
8360;BME280;4217;48.762;11.428;2022-09-27T14:43:15;95924.94;;;18.77;39.31
8360;BME280;4217;48.762;11.428;2022-09-27T14:53:23;95949.41;;;18.58;42.32
8360;BME280;4217;48.762;11.428;2022-09-27T15:03:29;96046.66;;;16.16;49.20
8360;BME280;4217;48.762;11.428;2022-09-27T15:13:39;96060.63;;;15.25;51.76
8360;BME280;4217;48.762;11.428;2022-09-27T15:23:45;96059.34;;;15.14;53.84
8360;BME280;4217;48.762;11.428;2022-09-27T15:33:53;96048.19;;;16.43;51.64
8360;BME280;4217;48.762;11.428;2022-09-27T15:43:55;96053.34;;;15.96;52.65
8360;BME280;4217;48.762;11.428;2022-09-27T15:53:57;96027.94;;;16.21;52.22
8360;BME280;4217;48.762;11.428;2022-09-27T16:03:58;96042.06;;;15.56;52.90
8360;BME280;4217;48.762;11.428;2022-09-27T16:14:00;96070.59;;;14.89;55.29
8360;BME280;4217;48.762;11.428;2022-09-27T16:24:01;96070.03;;;14.69;56.70
8360;BME280;4217;48.762;11.428;2022-09-27T16:34:10;96092.69;;;14.62;57.52
8360;BME280;4217;48.762;11.428;2022-09-27T16:44:13;96089.50;;;14.51;58.56
8360;BME280;4217;48.762;11.428;2022-09-27T16:54:18;96075.38;;;14.56;59.22
8360;BME280;4217;48.762;11.428;2022-09-27T17:04:19;96071.53;;;14.26;59.64
8360;BME280;4217;48.762;11.428;2022-09-27T17:14:21;96068.38;;;14.15;59.54
8360;BME280;4217;48.762;11.428;2022-09-27T17:24:23;96057.47;;;13.81;59.62
8360;BME280;4217;48.762;11.428;2022-09-27T17:34:25;96060.78;;;13.37;60.72
8360;BME280;4217;48.762;11.428;2022-09-27T17:44:28;96068.09;;;13.26;61.62
8360;BME280;4217;48.762;11.428;2022-09-27T17:54:30;96076.88;;;13.22;62.17
8360;BME280;4217;48.762;11.428;2022-09-27T18:04:31;96076.50;;;13.28;62.43
8360;BME280;4217;48.762;11.428;2022-09-27T18:14:32;96072.59;;;13.39;62.35
8360;BME280;4217;48.762;11.428;2022-09-27T18:24:34;96085.72;;;13.58;62.38
8360;BME280;4217;48.762;11.428;2022-09-27T18:34:35;96095.47;;;13.57;62.47
8360;BME280;4217;48.762;11.428;2022-09-27T18:44:37;96097.81;;;13.73;61.99
8360;BME280;4217;48.762;11.428;2022-09-27T18:54:38;96104.75;;;13.41;62.24
8360;BME280;4217;48.762;11.428;2022-09-27T19:04:41;96118.94;;;13.18;62.91
8360;BME280;4217;48.762;11.428;2022-09-27T19:14:42;96126.75;;;13.23;61.89
8360;BME280;4217;48.762;11.428;2022-09-27T19:24:44;96125.47;;;12.88;62.06
8360;BME280;4217;48.762;11.428;2022-09-27T19:34:45;96125.00;;;13.00;61.36
8360;BME280;4217;48.762;11.428;2022-09-27T19:44:47;96137.06;;;13.06;60.80
8360;BME280;4217;48.762;11.428;2022-09-27T19:54:48;96132.53;;;13.25;60.18
8360;BME280;4217;48.762;11.428;2022-09-27T20:04:49;96134.69;;;13.37;59.93
8360;BME280;4217;48.762;11.428;2022-09-27T20:14:51;96138.31;;;13.54;59.63
8360;BME280;4217;48.762;11.428;2022-09-27T20:24:53;96151.75;;;13.12;61.06
8360;BME280;4217;48.762;11.428;2022-09-27T20:34:54;96136.94;;;12.97;61.51
8360;BME280;4217;48.762;11.428;2022-09-27T20:44:56;96127.22;;;12.79;62.47
8360;BME280;4217;48.762;11.428;2022-09-27T20:54:57;96132.09;;;13.04;62.08
8360;BME280;4217;48.762;11.428;2022-09-27T21:04:59;96120.44;;;13.05;61.86
8360;BME280;4217;48.762;11.428;2022-09-27T21:15:00;96136.72;;;13.26;61.00
8360;BME280;4217;48.762;11.428;2022-09-27T21:25:02;96139.50;;;13.02;61.25
8360;BME280;4217;48.762;11.428;2022-09-27T21:35:04;96145.28;;;13.04;61.07
8360;BME280;4217;48.762;11.428;2022-09-27T21:45:06;96150.00;;;12.56;61.40
8360;BME280;4217;48.762;11.428;2022-09-27T21:55:08;96139.38;;;12.05;62.23
8360;BME280;4217;48.762;11.428;2022-09-27T22:05:09;96137.94;;;11.70;62.77
8360;BME280;4217;48.762;11.428;2022-09-27T22:15:11;96146.97;;;11.64;62.86
8360;BME280;4217;48.762;11.428;2022-09-27T22:25:12;96132.63;;;11.51;63.06
8360;BME280;4217;48.762;11.428;2022-09-27T22:35:14;96119.41;;;11.33;64.08
8360;BME280;4217;48.762;11.428;2022-09-27T22:45:15;96111.66;;;11.17;64.29
8360;BME280;4217;48.762;11.428;2022-09-27T22:55:18;96129.41;;;11.07;64.71
8360;BME280;4217;48.762;11.428;2022-09-27T23:05:20;96112.38;;;10.99;65.10
8360;BME280;4217;48.762;11.428;2022-09-27T23:15:21;96117.53;;;11.09;65.39
8360;BME280;4217;48.762;11.428;2022-09-27T23:25:23;96096.56;;;11.52;65.52
8360;BME280;4217;48.762;11.428;2022-09-27T23:35:24;96088.69;;;11.94;64.96
8360;BME280;4217;48.762;11.428;2022-09-27T23:45:30;96063.50;;;12.21;64.61
8360;BME280;4217;48.762;11.428;2022-09-27T23:55:32;96057.28;;;12.49;63.97
